Time;durP1;ratioP1;P1;durP2;ratioP2;P2;SDS_P1;SDS_P2;PMS_P1;PMS_P2;Temp;Humidity;BMP_temperature;BMP_pressure;BME280_temperature;BME280_humidity;BME280_pressure;Samples;Min_cycle;Max_cycle;Signal;HPM_P1;HPM_P2
2021/04/22 00:02:21;;;;;;;12.33;3.87;;;;;;;;;;5117359;28;20292;-59
2021/04/22 00:04:46;;;;;;;8.87;4.23;;;;;;;;;;5117345;28;20215;-59
2021/04/22 00:07:14;;;;;;;12.13;3.97;;;;;;;;;;5117817;28;20227;-60
2021/04/22 00:09:39;;;;;;;8.20;3.20;;;;;;;;;;5116576;28;20280;-59
2021/04/22 00:12:08;;;;;;;11.03;3.73;;;;;;;;;;5117537;28;20449;-59
2021/04/22 00:14:33;;;;;;;12.50;3.87;;;;;;;;;;5117277;28;20217;-59
2021/04/22 00:16:58;;;;;;;13.83;4.00;;;;;;;;;;5116274;28;20468;-59
2021/04/22 00:19:24;;;;;;;7.60;3.10;;;;;;;;;;5117119;28;20231;-59
2021/04/22 00:21:49;;;;;;;9.30;4.17;;;;;;;;;;5116540;28;20300;-58
2021/04/22 00:24:14;;;;;;;8.50;3.03;;;;;;;;;;5116179;28;20224;-59
2021/04/22 00:26:39;;;;;;;8.97;4.23;;;;;;;;;;5115638;28;20630;-58
2021/04/22 00:29:05;;;;;;;7.23;3.93;;;;;;;;;;5117297;28;20227;-60
2021/04/22 00:31:30;;;;;;;13.67;4.47;;;;;;;;;;5117003;28;20242;-59
2021/04/22 00:33:55;;;;;;;10.53;4.20;;;;;;;;;;5116808;28;20560;-61
2021/04/22 00:36:21;;;;;;;9.60;4.23;;;;;;;;;;5116339;28;20673;-59
2021/04/22 00:38:46;;;;;;;9.57;4.73;;;;;;;;;;5116696;28;20215;-59
2021/04/22 00:41:11;;;;;;;12.60;4.50;;;;;;;;;;5116967;28;20664;-60
2021/04/22 00:43:36;;;;;;;7.67;3.10;;;;;;;;;;5116444;28;20258;-59
2021/04/22 00:46:02;;;;;;;10.97;4.30;;;;;;;;;;5116526;28;20280;-60
2021/04/22 00:48:27;;;;;;;9.17;4.53;;;;;;;;;;5116991;28;20294;-60
2021/04/22 00:50:53;;;;;;;7.60;3.77;;;;;;;;;;5116877;28;20207;-59
2021/04/22 00:53:20;;;;;;;8.40;3.67;;;;;;;;;;5117174;28;20593;-60
2021/04/22 00:55:46;;;;;;;12.50;3.97;;;;;;;;;;5116594;28;20443;-60
2021/04/22 00:58:11;;;;;;;9.17;4.00;;;;;;;;;;5116520;28;20953;-59
2021/04/22 01:00:40;;;;;;;10.67;3.60;;;;;;;;;;5117188;28;20472;-59
2021/04/22 01:03:06;;;;;;;13.30;4.00;;;;;;;;;;5117030;28;20229;-59
2021/04/22 01:05:37;;;;;;;6.37;3.50;;;;;;;;;;5116937;28;20870;-60
2021/04/22 01:08:03;;;;;;;11.33;4.20;;;;;;;;;;5116499;28;20238;-60
2021/04/22 01:10:28;;;;;;;11.90;3.93;;;;;;;;;;5117079;28;20460;-60
2021/04/22 01:12:54;;;;;;;12.70;5.07;;;;;;;;;;5116476;28;20214;-60
2021/04/22 01:15:21;;;;;;;6.43;4.10;;;;;;;;;;5116969;28;20231;-60
2021/04/22 01:17:47;;;;;;;6.83;3.83;;;;;;;;;;5116885;28;20220;-60
2021/04/22 01:20:21;;;;;;;13.20;4.70;;;;;;;;;;5117139;28;20462;-59
2021/04/22 01:22:48;;;;;;;11.83;4.37;;;;;;;;;;5116806;28;20306;-60
2021/04/22 01:25:23;;;;;;;10.27;3.70;;;;;;;;;;5116783;28;20457;-60
2021/04/22 01:27:48;;;;;;;7.60;3.30;;;;;;;;;;5116030;28;20464;-60
2021/04/22 01:30:19;;;;;;;15.13;4.70;;;;;;;;;;5120890;28;21020;-58
2021/04/22 01:32:45;;;;;;;9.30;4.40;;;;;;;;;;5120483;28;20219;-59
2021/04/22 01:35:16;;;;;;;12.20;5.00;;;;;;;;;;5120154;27;20789;-59
2021/04/22 01:37:41;;;;;;;12.93;4.13;;;;;;;;;;5121250;28;20223;-59
2021/04/22 01:40:08;;;;;;;9.80;4.17;;;;;;;;;;5120339;28;20474;-60
2021/04/22 01:42:33;;;;;;;17.73;4.87;;;;;;;;;;5120744;28;20226;-58
2021/04/22 01:44:59;;;;;;;10.23;4.40;;;;;;;;;;5120492;27;20743;-59
2021/04/22 01:47:24;;;;;;;10.90;4.40;;;;;;;;;;5120229;28;20230;-59
2021/04/22 01:49:49;;;;;;;9.73;4.40;;;;;;;;;;5119639;27;20227;-59
2021/04/22 01:52:15;;;;;;;7.10;4.37;;;;;;;;;;5119887;28;20234;-59
2021/04/22 01:54:40;;;;;;;9.90;4.97;;;;;;;;;;5119236;28;20241;-59
2021/04/22 01:57:06;;;;;;;11.50;4.77;;;;;;;;;;5119134;28;20222;-59
2021/04/22 01:59:31;;;;;;;14.60;4.60;;;;;;;;;;5119760;27;20292;-59
2021/04/22 02:01:57;;;;;;;10.53;4.70;;;;;;;;;;5119981;28;20449;-59
2021/04/22 02:04:23;;;;;;;7.10;4.03;;;;;;;;;;5120719;28;20215;-59
2021/04/22 02:06:48;;;;;;;12.40;4.87;;;;;;;;;;5120421;28;20227;-59
2021/04/22 02:09:13;;;;;;;15.27;4.70;;;;;;;;;;5119669;28;20469;-60
2021/04/22 02:11:38;;;;;;;12.60;4.90;;;;;;;;;;5119722;28;20652;-59
2021/04/22 02:14:04;;;;;;;12.50;5.87;;;;;;;;;;5118969;27;20311;-58
2021/04/22 02:16:29;;;;;;;9.57;4.60;;;;;;;;;;5119129;28;20217;-59
2021/04/22 02:18:54;;;;;;;19.80;5.43;;;;;;;;;;5119623;28;20239;-59
2021/04/22 02:21:20;;;;;;;9.10;4.30;;;;;;;;;;5119802;28;20280;-59
2021/04/22 02:23:45;;;;;;;10.33;4.83;;;;;;;;;;5119150;28;20243;-59
2021/04/22 02:26:10;;;;;;;9.53;5.10;;;;;;;;;;5119460;27;20269;-59
2021/04/22 02:28:36;;;;;;;9.30;5.43;;;;;;;;;;5119666;28;20649;-59
2021/04/22 02:31:01;;;;;;;7.60;4.67;;;;;;;;;;5118397;27;20305;-59
2021/04/22 02:33:27;;;;;;;10.07;4.33;;;;;;;;;;5120418;27;20288;-60
2021/04/22 02:35:52;;;;;;;16.50;4.57;;;;;;;;;;5119613;27;20299;-59
2021/04/22 02:38:17;;;;;;;9.17;4.67;;;;;;;;;;5118905;28;20304;-59
2021/04/22 02:40:44;;;;;;;12.80;4.90;;;;;;;;;;5118439;28;20660;-58
2021/04/22 02:43:12;;;;;;;8.63;4.53;;;;;;;;;;5118993;27;20227;-59
2021/04/22 02:45:40;;;;;;;11.27;4.90;;;;;;;;;;5119417;28;20532;-59
2021/04/22 02:48:07;;;;;;;10.43;5.10;;;;;;;;;;5118385;28;20464;-59
2021/04/22 02:50:36;;;;;;;10.73;5.50;;;;;;;;;;5119236;28;20449;-58
2021/04/22 02:53:03;;;;;;;10.70;4.40;;;;;;;;;;5118878;28;20464;-59
2021/04/22 02:55:28;;;;;;;5.93;3.80;;;;;;;;;;5118781;28;20465;-58
2021/04/22 02:57:53;;;;;;;10.23;4.50;;;;;;;;;;5117961;28;21224;-58
2021/04/22 03:00:20;;;;;;;11.00;5.63;;;;;;;;;;5118094;28;20214;-59
2021/04/22 03:02:46;;;;;;;11.07;5.80;;;;;;;;;;5118858;27;20242;-59
2021/04/22 03:05:12;;;;;;;6.73;4.03;;;;;;;;;;5117003;28;20441;-59
2021/04/22 03:07:38;;;;;;;12.33;4.20;;;;;;;;;;5117469;28;20744;-58
2021/04/22 03:10:05;;;;;;;16.07;4.57;;;;;;;;;;5118462;28;20458;-59
2021/04/22 03:12:30;;;;;;;10.57;4.70;;;;;;;;;;5118556;27;20303;-58
2021/04/22 03:14:56;;;;;;;9.43;4.27;;;;;;;;;;5118310;28;20452;-59
2021/04/22 03:17:21;;;;;;;10.23;3.80;;;;;;;;;;5118816;28;20223;-59
2021/04/22 03:19:46;;;;;;;13.60;4.20;;;;;;;;;;5119001;28;20211;-59
2021/04/22 03:22:12;;;;;;;13.20;4.77;;;;;;;;;;5119007;28;20211;-59
2021/04/22 03:24:37;;;;;;;9.97;4.50;;;;;;;;;;5118952;28;20217;-59
2021/04/22 03:27:03;;;;;;;13.70;6.10;;;;;;;;;;5118384;28;20231;-59
2021/04/22 03:29:28;;;;;;;18.47;4.90;;;;;;;;;;5118451;27;20229;-59
2021/04/22 03:31:53;;;;;;;7.10;3.80;;;;;;;;;;5118774;28;20536;-60
2021/04/22 03:34:19;;;;;;;11.10;4.30;;;;;;;;;;5118999;28;20215;-59
2021/04/22 03:36:44;;;;;;;12.07;4.70;;;;;;;;;;5118683;27;20215;-60
2021/04/22 03:39:09;;;;;;;9.17;4.57;;;;;;;;;;5118423;28;20220;-60
2021/04/22 03:41:35;;;;;;;24.70;4.60;;;;;;;;;;5119192;28;20214;-59
2021/04/22 03:44:00;;;;;;;10.90;3.80;;;;;;;;;;5118525;28;20223;-59
2021/04/22 03:46:25;;;;;;;14.20;5.00;;;;;;;;;;5119176;28;20230;-60
2021/04/22 03:48:50;;;;;;;12.87;4.97;;;;;;;;;;5118645;28;20220;-59
2021/04/22 03:51:16;;;;;;;7.10;3.50;;;;;;;;;;5117341;28;20226;-59
2021/04/22 03:53:41;;;;;;;13.00;4.80;;;;;;;;;;5118514;28;20219;-60
2021/04/22 03:56:06;;;;;;;10.37;4.13;;;;;;;;;;5118733;28;20218;-60
2021/04/22 03:58:32;;;;;;;12.97;4.67;;;;;;;;;;5118067;28;20691;-59
2021/04/22 04:00:57;;;;;;;10.20;3.67;;;;;;;;;;5117524;27;20215;-59
2021/04/22 04:03:22;;;;;;;15.80;4.43;;;;;;;;;;5118729;28;20262;-60
2021/04/22 04:05:48;;;;;;;14.50;6.37;;;;;;;;;;5118351;28;20206;-60
2021/04/22 04:08:13;;;;;;;12.40;3.80;;;;;;;;;;5117190;27;20593;-58
2021/04/22 04:10:39;;;;;;;18.70;4.33;;;;;;;;;;5117067;28;20225;-59
2021/04/22 04:13:05;;;;;;;16.83;4.97;;;;;;;;;;5117634;28;20273;-59
2021/04/22 04:15:30;;;;;;;8.33;4.90;;;;;;;;;;5117859;28;20487;-59
2021/04/22 04:17:55;;;;;;;11.43;4.40;;;;;;;;;;5117703;27;20290;-59
2021/04/22 04:20:20;;;;;;;10.87;4.40;;;;;;;;;;5117731;28;20598;-59
2021/04/22 04:22:47;;;;;;;11.40;5.83;;;;;;;;;;5117792;28;20210;-60
2021/04/22 04:25:13;;;;;;;12.63;5.63;;;;;;;;;;5117682;28;20559;-59
2021/04/22 04:27:38;;;;;;;12.53;5.00;;;;;;;;;;5117509;28;20454;-59
2021/04/22 04:30:05;;;;;;;15.17;5.30;;;;;;;;;;5117937;28;20485;-59
2021/04/22 04:32:30;;;;;;;12.60;4.40;;;;;;;;;;5116825;28;20223;-59
2021/04/22 04:34:55;;;;;;;12.00;4.50;;;;;;;;;;5117172;28;20782;-59
2021/04/22 04:37:21;;;;;;;15.37;4.40;;;;;;;;;;5117736;28;20310;-59
2021/04/22 04:39:48;;;;;;;13.77;4.83;;;;;;;;;;5118217;27;20296;-60
2021/04/22 04:42:13;;;;;;;14.33;4.57;;;;;;;;;;5117243;28;20275;-58
2021/04/22 04:44:39;;;;;;;14.20;4.30;;;;;;;;;;5116793;28;20465;-59
2021/04/22 04:47:05;;;;;;;12.63;4.80;;;;;;;;;;5115899;28;20214;-59
2021/04/22 04:49:30;;;;;;;11.27;4.80;;;;;;;;;;5117767;28;20310;-59
2021/04/22 04:51:55;;;;;;;9.30;3.63;;;;;;;;;;5117514;28;20657;-59
2021/04/22 04:54:20;;;;;;;8.90;4.03;;;;;;;;;;5117802;28;20275;-59
2021/04/22 04:56:46;;;;;;;13.93;4.97;;;;;;;;;;5117330;28;20674;-60
2021/04/22 04:59:11;;;;;;;8.97;4.83;;;;;;;;;;5117081;28;20249;-60
2021/04/22 05:01:37;;;;;;;10.03;4.50;;;;;;;;;;5117554;28;20282;-59
2021/04/22 05:04:03;;;;;;;10.63;3.63;;;;;;;;;;5120425;28;20213;-59
2021/04/22 05:06:28;;;;;;;9.90;4.60;;;;;;;;;;5121855;28;20449;-58
2021/04/22 05:08:53;;;;;;;10.20;4.43;;;;;;;;;;5120270;28;20457;-59
2021/04/22 05:11:19;;;;;;;13.00;3.87;;;;;;;;;;5120924;28;20230;-59
2021/04/22 05:13:44;;;;;;;11.87;4.80;;;;;;;;;;5121225;28;20302;-58
2021/04/22 05:16:09;;;;;;;15.30;4.40;;;;;;;;;;5121800;28;20222;-59
2021/04/22 05:18:35;;;;;;;13.00;5.77;;;;;;;;;;5121354;28;20225;-65
2021/04/22 05:21:00;;;;;;;12.63;5.30;;;;;;;;;;5121889;28;20228;-60
2021/04/22 05:23:25;;;;;;;10.00;5.17;;;;;;;;;;5120508;28;20228;-59
2021/04/22 05:25:54;;;;;;;14.63;5.40;;;;;;;;;;5120389;28;20514;-60
2021/04/22 05:28:19;;;;;;;10.00;4.17;;;;;;;;;;5118842;28;20553;-59
2021/04/22 05:30:44;;;;;;;19.67;4.50;;;;;;;;;;5120331;27;20456;-59
2021/04/22 05:33:11;;;;;;;14.20;4.33;;;;;;;;;;5119038;28;20298;-60
2021/04/22 05:35:36;;;;;;;15.23;5.70;;;;;;;;;;5121363;28;20220;-60
2021/04/22 05:38:02;;;;;;;13.13;4.60;;;;;;;;;;5120320;28;20449;-59
2021/04/22 05:40:27;;;;;;;13.73;4.97;;;;;;;;;;5126369;27;20564;-59
2021/04/22 05:42:52;;;;;;;13.93;5.10;;;;;;;;;;5140168;27;20487;-60
2021/04/22 05:45:18;;;;;;;8.50;5.07;;;;;;;;;;5140496;27;20221;-59
2021/04/22 05:47:45;;;;;;;16.03;4.70;;;;;;;;;;5140838;27;20217;-59
2021/04/22 05:50:11;;;;;;;11.07;4.90;;;;;;;;;;5140334;27;20214;-59
2021/04/22 05:52:36;;;;;;;17.17;4.40;;;;;;;;;;5130994;27;20495;-59
2021/04/22 05:55:03;;;;;;;15.37;4.30;;;;;;;;;;5134474;27;20542;-60
2021/04/22 05:57:29;;;;;;;20.90;5.50;;;;;;;;;;5140528;27;20259;-60
2021/04/22 05:59:54;;;;;;;9.83;4.40;;;;;;;;;;5140099;27;20467;-60
2021/04/22 06:02:19;;;;;;;13.70;5.13;;;;;;;;;;5126771;27;20222;-60
2021/04/22 06:04:45;;;;;;;11.33;4.90;;;;;;;;;;5126192;27;20211;-60
2021/04/22 06:07:10;;;;;;;10.33;4.23;;;;;;;;;;5132046;27;20307;-59
2021/04/22 06:09:35;;;;;;;13.40;6.87;;;;;;;;;;5133305;27;20314;-60
2021/04/22 06:12:01;;;;;;;21.07;6.30;;;;;;;;;;5126160;27;20219;-60
2021/04/22 06:14:26;;;;;;;12.70;5.70;;;;;;;;;;5124929;27;20728;-61
2021/04/22 06:16:51;;;;;;;14.47;4.33;;;;;;;;;;5132896;27;20221;-61
2021/04/22 06:19:17;;;;;;;10.63;4.33;;;;;;;;;;5131887;27;20297;-60
2021/04/22 06:21:42;;;;;;;10.80;4.07;;;;;;;;;;5125536;27;20215;-60
2021/04/22 06:24:08;;;;;;;9.90;3.87;;;;;;;;;;5125413;27;20306;-61
2021/04/22 06:26:33;;;;;;;12.37;4.53;;;;;;;;;;5132196;27;20212;-60
2021/04/22 06:29:01;;;;;;;17.43;5.73;;;;;;;;;;5131841;27;20556;-60
2021/04/22 06:31:27;;;;;;;21.87;6.70;;;;;;;;;;5124740;27;20221;-61
2021/04/22 06:33:52;;;;;;;12.90;4.57;;;;;;;;;;5126684;27;20509;-60
2021/04/22 06:36:19;;;;;;;16.60;4.33;;;;;;;;;;5132204;27;20219;-61
2021/04/22 06:38:44;;;;;;;16.13;4.90;;;;;;;;;;5132101;27;20216;-61
2021/04/22 06:41:09;;;;;;;14.70;4.80;;;;;;;;;;5124966;27;20464;-60
2021/04/22 06:43:35;;;;;;;10.37;4.90;;;;;;;;;;5139200;27;20331;-60
2021/04/22 06:46:00;;;;;;;13.63;5.20;;;;;;;;;;5124544;27;20293;-60
2021/04/22 06:48:25;;;;;;;12.13;4.57;;;;;;;;;;5135906;27;20305;-61
2021/04/22 06:50:50;;;;;;;16.40;5.83;;;;;;;;;;5140162;27;20228;-61
2021/04/22 06:53:16;;;;;;;13.20;4.93;;;;;;;;;;5131047;27;20220;-59
2021/04/22 06:55:41;;;;;;;14.50;4.63;;;;;;;;;;5132461;27;20293;-60
2021/04/22 06:58:07;;;;;;;7.63;4.40;;;;;;;;;;5126248;27;20247;-60
2021/04/22 07:00:36;;;;;;;9.63;4.33;;;;;;;;;;5125153;27;20220;-60
2021/04/22 07:03:02;;;;;;;10.80;4.07;;;;;;;;;;5130599;27;20469;-61
2021/04/22 07:05:27;;;;;;;14.77;4.17;;;;;;;;;;5131804;27;20449;-60
2021/04/22 07:07:52;;;;;;;9.07;3.83;;;;;;;;;;5126690;27;20235;-60
2021/04/22 07:10:18;;;;;;;13.07;3.80;;;;;;;;;;5124865;27;20214;-61
2021/04/22 07:12:43;;;;;;;11.30;4.40;;;;;;;;;;5130926;27;20648;-61
2021/04/22 07:15:10;;;;;;;10.33;4.00;;;;;;;;;;5132387;27;20230;-60
2021/04/22 07:17:36;;;;;;;12.00;4.50;;;;;;;;;;5137708;27;20302;-60
2021/04/22 07:20:12;;;;;;;18.63;5.20;;;;;;;;;;5137715;27;20464;-60
2021/04/22 07:22:37;;;;;;;10.33;4.13;;;;;;;;;;5105518;28;20451;-59
2021/04/22 07:25:03;;;;;;;14.13;4.33;;;;;;;;;;5118124;28;20462;-60
2021/04/22 07:27:28;;;;;;;11.70;4.30;;;;;;;;;;5117158;28;20216;-59
2021/04/22 07:29:54;;;;;;;14.83;5.10;;;;;;;;;;5117784;28;20226;-60
2021/04/22 07:32:20;;;;;;;11.13;4.47;;;;;;;;;;5117101;28;20601;-60
2021/04/22 07:34:47;;;;;;;15.47;5.30;;;;;;;;;;5117830;27;20221;-60
2021/04/22 07:37:13;;;;;;;7.80;4.57;;;;;;;;;;5117868;28;20474;-59
2021/04/22 07:39:39;;;;;;;16.93;5.27;;;;;;;;;;5117122;28;20450;-60
2021/04/22 07:42:04;;;;;;;12.27;4.30;;;;;;;;;;5117087;27;20224;-59
2021/04/22 07:44:29;;;;;;;12.13;5.20;;;;;;;;;;5115600;28;20853;-59
2021/04/22 07:46:55;;;;;;;11.70;5.50;;;;;;;;;;5117307;28;20720;-58
2021/04/22 07:49:20;;;;;;;10.30;3.77;;;;;;;;;;5116604;27;20224;-58
2021/04/22 07:51:46;;;;;;;12.20;4.70;;;;;;;;;;5128617;27;20596;-60
2021/04/22 07:54:11;;;;;;;19.43;4.70;;;;;;;;;;5133655;27;20207;-60
2021/04/22 07:56:37;;;;;;;25.47;10.30;;;;;;;;;;5121434;27;20524;-60
2021/04/22 07:59:03;;;;;;;16.13;8.30;;;;;;;;;;5117453;28;20225;-59
2021/04/22 08:01:29;;;;;;;9.30;4.23;;;;;;;;;;5132924;27;20672;-59
2021/04/22 08:03:54;;;;;;;10.00;4.17;;;;;;;;;;5117139;28;20442;-59
2021/04/22 08:06:20;;;;;;;6.83;3.70;;;;;;;;;;5116437;28;20437;-59
2021/04/22 08:08:45;;;;;;;11.47;4.17;;;;;;;;;;5128846;27;20615;-59
2021/04/22 08:11:10;;;;;;;9.37;4.13;;;;;;;;;;5116825;28;20605;-59
2021/04/22 08:13:37;;;;;;;11.33;3.63;;;;;;;;;;5117125;28;20287;-60
2021/04/22 08:16:02;;;;;;;8.00;2.90;;;;;;;;;;5115826;28;20225;-59
2021/04/22 08:18:28;;;;;;;12.57;3.17;;;;;;;;;;5115949;28;20434;-60
2021/04/22 08:20:56;;;;;;;11.23;3.77;;;;;;;;;;5115876;28;20309;-60
2021/04/22 08:23:28;;;;;;;9.60;4.23;;;;;;;;;;5115831;28;20235;-59
2021/04/22 08:25:57;;;;;;;6.00;3.30;;;;;;;;;;5117064;28;20450;-59
2021/04/22 08:28:24;;;;;;;7.10;3.27;;;;;;;;;;5115938;28;20502;-58
2021/04/22 08:30:55;;;;;;;6.27;3.07;;;;;;;;;;5116212;28;20427;-60
2021/04/22 08:33:22;;;;;;;5.53;2.90;;;;;;;;;;5115324;28;20490;-58
2021/04/22 08:35:49;;;;;;;6.43;3.40;;;;;;;;;;5116435;28;20479;-59
2021/04/22 08:38:14;;;;;;;7.50;4.13;;;;;;;;;;5114614;28;20499;-59
2021/04/22 08:40:40;;;;;;;8.27;3.27;;;;;;;;;;5113731;28;20431;-60
2021/04/22 08:43:06;;;;;;;10.70;3.40;;;;;;;;;;5110283;28;20242;-59
2021/04/22 08:45:31;;;;;;;10.50;3.47;;;;;;;;;;5112358;28;20441;-60
2021/04/22 08:47:57;;;;;;;8.33;3.33;;;;;;;;;;5115210;28;20242;-59
2021/04/22 08:50:25;;;;;;;7.43;3.90;;;;;;;;;;5115232;28;20227;-60
2021/04/22 08:52:53;;;;;;;7.80;2.90;;;;;;;;;;5115104;28;20278;-60
2021/04/22 08:55:21;;;;;;;7.80;3.67;;;;;;;;;;5114660;28;20486;-58
2021/04/22 08:57:47;;;;;;;9.10;3.97;;;;;;;;;;5115651;28;20794;-59
2021/04/22 09:00:14;;;;;;;11.83;3.20;;;;;;;;;;5116042;28;20437;-59
2021/04/22 09:02:40;;;;;;;7.03;3.07;;;;;;;;;;5114869;28;20651;-59
2021/04/22 09:05:05;;;;;;;7.23;2.80;;;;;;;;;;5114925;28;20435;-59
2021/04/22 09:07:30;;;;;;;8.13;2.83;;;;;;;;;;5114793;28;20309;-59
2021/04/22 09:09:56;;;;;;;7.30;3.27;;;;;;;;;;5115338;28;20235;-59
2021/04/22 09:12:21;;;;;;;5.97;2.90;;;;;;;;;;5114989;28;20255;-59
2021/04/22 09:14:58;;;;;;;14.37;3.30;;;;;;;;;;5115116;28;20254;-59
2021/04/22 09:17:24;;;;;;;6.23;3.00;;;;;;;;;;5114320;28;20231;-59
2021/04/22 09:19:49;;;;;;;5.87;2.93;;;;;;;;;;5113896;28;20449;-60
2021/04/22 09:22:15;;;;;;;7.63;4.00;;;;;;;;;;5114494;28;20463;-59
2021/04/22 09:24:40;;;;;;;5.77;3.20;;;;;;;;;;5113852;28;20547;-60
2021/04/22 09:27:16;;;;;;;8.43;3.43;;;;;;;;;;5121992;28;20297;-59
2021/04/22 09:29:47;;;;;;;12.90;3.30;;;;;;;;;;5114178;28;20290;-59
2021/04/22 09:32:18;;;;;;;7.90;3.80;;;;;;;;;;5115005;28;20466;-59
2021/04/22 09:34:49;;;;;;;7.80;3.10;;;;;;;;;;5100572;28;20420;-59
2021/04/22 09:37:15;;;;;;;8.33;4.30;;;;;;;;;;5115200;28;20432;-59
2021/04/22 09:39:41;;;;;;;7.70;3.30;;;;;;;;;;5113779;28;20458;-60
2021/04/22 09:42:09;;;;;;;10.37;4.20;;;;;;;;;;5113710;28;20468;-60
2021/04/22 09:44:35;;;;;;;5.40;3.27;;;;;;;;;;5113206;28;20220;-60
2021/04/22 09:47:10;;;;;;;7.40;3.27;;;;;;;;;;5113728;28;20973;-59
2021/04/22 09:49:52;;;;;;;11.87;3.90;;;;;;;;;;5115076;28;20522;-60
2021/04/22 09:52:19;;;;;;;8.93;3.07;;;;;;;;;;5118255;28;21001;-60
2021/04/22 09:54:48;;;;;;;7.13;3.00;;;;;;;;;;5117904;28;20426;-59
2021/04/22 09:57:24;;;;;;;6.90;3.13;;;;;;;;;;5117973;28;20445;-60
2021/04/22 09:59:50;;;;;;;7.33;3.53;;;;;;;;;;5117914;27;20521;-59
2021/04/22 10:02:15;;;;;;;5.50;2.33;;;;;;;;;;5118408;28;20466;-61
2021/04/22 10:04:47;;;;;;;7.83;2.83;;;;;;;;;;5116738;27;20502;-60
2021/04/22 10:07:30;;;;;;;4.70;2.57;;;;;;;;;;5103648;27;20282;-59
2021/04/22 10:10:00;;;;;;;5.00;2.73;;;;;;;;;;5116621;27;20489;-59
2021/04/22 10:12:32;;;;;;;8.70;2.67;;;;;;;;;;5117183;27;20476;-59
2021/04/22 10:15:09;;;;;;;5.10;2.47;;;;;;;;;;5123416;27;20456;-59
2021/04/22 10:17:35;;;;;;;13.33;2.80;;;;;;;;;;5125281;27;20465;-59
2021/04/22 10:20:07;;;;;;;3.47;2.10;;;;;;;;;;5131039;27;20522;-60
2021/04/22 10:22:35;;;;;;;4.37;2.20;;;;;;;;;;5129692;27;20227;-60
2021/04/22 10:25:04;;;;;;;2.20;1.70;;;;;;;;;;5123301;27;20458;-60
2021/04/22 10:27:30;;;;;;;5.97;2.37;;;;;;;;;;5124255;27;20485;-60
2021/04/22 10:29:56;;;;;;;6.00;2.27;;;;;;;;;;5129947;27;20450;-59
2021/04/22 10:32:22;;;;;;;5.23;1.93;;;;;;;;;;5130244;27;20244;-59
2021/04/22 10:34:50;;;;;;;3.63;1.90;;;;;;;;;;5121646;27;20437;-59
2021/04/22 10:37:15;;;;;;;3.27;1.90;;;;;;;;;;5123366;27;20234;-59
2021/04/22 10:39:41;;;;;;;5.73;2.10;;;;;;;;;;5129878;27;20510;-59
2021/04/22 10:42:06;;;;;;;3.73;2.10;;;;;;;;;;5129341;27;20220;-60
2021/04/22 10:44:32;;;;;;;6.60;2.30;;;;;;;;;;5136875;27;20224;-60
2021/04/22 10:46:58;;;;;;;6.63;2.27;;;;;;;;;;5122477;27;20219;-59
2021/04/22 10:49:24;;;;;;;3.37;2.10;;;;;;;;;;5136749;27;20525;-59
2021/04/22 10:51:49;;;;;;;4.83;1.90;;;;;;;;;;5117879;27;20454;-60
2021/04/22 10:54:15;;;;;;;3.60;1.87;;;;;;;;;;5136919;27;20293;-60
2021/04/22 10:56:40;;;;;;;4.33;2.10;;;;;;;;;;5122113;27;20231;-59
2021/04/22 10:59:05;;;;;;;4.20;1.97;;;;;;;;;;5128176;27;20518;-59
2021/04/22 11:01:38;;;;;;;6.43;2.83;;;;;;;;;;5129383;27;20237;-59
2021/04/22 11:04:07;;;;;;;6.30;2.77;;;;;;;;;;5124945;27;20220;-60
2021/04/22 11:06:35;;;;;;;6.13;3.00;;;;;;;;;;5123423;27;20485;-59
2021/04/22 11:09:10;;;;;;;6.77;2.73;;;;;;;;;;5126308;27;20468;-60
2021/04/22 11:11:36;;;;;;;4.80;2.03;;;;;;;;;;5130635;27;21020;-59
2021/04/22 11:14:11;;;;;;;8.20;2.87;;;;;;;;;;5127322;27;20515;-59
2021/04/22 11:16:40;;;;;;;3.90;2.30;;;;;;;;;;5122509;27;20597;-59
2021/04/22 11:19:15;;;;;;;4.20;2.40;;;;;;;;;;5123458;27;20446;-60
2021/04/22 11:22:13;;;;;;;3.57;1.53;;;;;;;;;;5122246;27;20538;-59
2021/04/22 11:24:50;;;;;;;5.47;2.23;;;;;;;;;;5131253;27;20449;-60
2021/04/22 11:27:15;;;;;;;6.50;2.70;;;;;;;;;;5119832;27;20475;-59
2021/04/22 11:29:50;;;;;;;3.43;1.97;;;;;;;;;;5116574;27;20493;-59
2021/04/22 11:32:34;;;;;;;11.10;2.60;;;;;;;;;;5111604;27;20224;-58
2021/04/22 11:35:06;;;;;;;3.20;1.90;;;;;;;;;;5124156;27;20797;-60
2021/04/22 11:37:32;;;;;;;7.73;2.47;;;;;;;;;;5121396;27;20447;-61
2021/04/22 11:39:58;;;;;;;5.13;3.30;;;;;;;;;;5114880;27;20452;-60
2021/04/22 11:42:23;;;;;;;3.60;2.40;;;;;;;;;;5110039;28;20503;-59
2021/04/22 11:44:52;;;;;;;11.03;2.53;;;;;;;;;;5115064;27;20771;-60
2021/04/22 11:47:25;;;;;;;7.70;2.83;;;;;;;;;;5101377;27;20246;-59
2021/04/22 11:50:02;;;;;;;4.93;1.90;;;;;;;;;;5114645;28;20453;-60
2021/04/22 11:52:28;;;;;;;8.40;2.73;;;;;;;;;;5107991;28;21041;-59
2021/04/22 11:54:53;;;;;;;3.23;1.97;;;;;;;;;;5114489;27;20541;-60
2021/04/22 11:57:18;;;;;;;7.33;2.73;;;;;;;;;;5100738;27;20304;-60
2021/04/22 11:59:52;;;;;;;9.43;2.73;;;;;;;;;;5101189;27;20233;-59
2021/04/22 12:02:17;;;;;;;3.80;2.50;;;;;;;;;;5101814;28;20232;-59
2021/04/22 12:04:50;;;;;;;5.53;2.27;;;;;;;;;;5113549;27;20453;-59
2021/04/22 12:07:17;;;;;;;7.03;3.00;;;;;;;;;;5102718;27;20302;-58
2021/04/22 12:09:53;;;;;;;5.30;2.37;;;;;;;;;;5101075;28;20778;-58
2021/04/22 12:12:24;;;;;;;7.17;3.43;;;;;;;;;;5103805;27;20458;-59
2021/04/22 12:14:52;;;;;;;3.47;2.50;;;;;;;;;;5108301;27;20536;-58
2021/04/22 12:17:22;;;;;;;9.23;4.17;;;;;;;;;;5105933;27;20532;-60
2021/04/22 12:19:51;;;;;;;12.23;2.70;;;;;;;;;;5100938;28;20445;-59
2021/04/22 12:22:37;;;;;;;4.00;2.60;;;;;;;;;;5101432;27;20469;-59
2021/04/22 12:25:09;;;;;;;4.63;2.43;;;;;;;;;;5102757;28;20536;-59
2021/04/22 12:27:37;;;;;;;4.30;2.50;;;;;;;;;;5111531;28;20535;-60
2021/04/22 12:30:15;;;;;;;5.83;3.00;;;;;;;;;;5103329;28;20460;-60
2021/04/22 12:32:51;;;;;;;4.47;2.50;;;;;;;;;;5100010;27;20525;-60
2021/04/22 12:35:18;;;;;;;6.07;2.97;;;;;;;;;;5102237;27;20450;-58
2021/04/22 12:37:43;;;;;;;5.17;2.57;;;;;;;;;;5108328;27;20534;-60
2021/04/22 12:40:09;;;;;;;6.90;2.67;;;;;;;;;;5106863;27;20534;-59
2021/04/22 12:42:35;;;;;;;6.80;3.40;;;;;;;;;;5101579;28;20232;-59
2021/04/22 12:45:10;;;;;;;7.67;3.30;;;;;;;;;;5114420;27;20792;-59
2021/04/22 12:47:37;;;;;;;3.93;2.10;;;;;;;;;;5134047;27;20460;-60
2021/04/22 12:50:09;;;;;;;6.07;3.37;;;;;;;;;;5113771;28;20457;-59
2021/04/22 12:52:35;;;;;;;7.23;2.80;;;;;;;;;;5113847;27;20545;-60
2021/04/22 12:55:03;;;;;;;6.03;3.03;;;;;;;;;;5112625;27;20549;-60
2021/04/22 12:57:29;;;;;;;5.30;2.37;;;;;;;;;;5101982;28;20473;-59
2021/04/22 12:59:55;;;;;;;3.90;2.20;;;;;;;;;;5099083;28;20519;-60
2021/04/22 13:02:20;;;;;;;6.90;2.90;;;;;;;;;;5101723;28;20211;-59
2021/04/22 13:05:00;;;;;;;11.23;3.00;;;;;;;;;;5100363;28;20224;-60
2021/04/22 13:07:35;;;;;;;7.27;3.20;;;;;;;;;;5104141;27;20461;-59
2021/04/22 13:10:06;;;;;;;5.67;2.47;;;;;;;;;;5107065;27;20462;-60
2021/04/22 13:12:33;;;;;;;5.17;2.50;;;;;;;;;;5104768;27;20926;-59
2021/04/22 13:14:59;;;;;;;7.77;2.67;;;;;;;;;;5099823;28;20461;-60
2021/04/22 13:17:26;;;;;;;5.93;2.63;;;;;;;;;;5102508;27;20465;-59
2021/04/22 13:19:51;;;;;;;7.97;2.70;;;;;;;;;;5108039;27;20595;-60
2021/04/22 13:22:17;;;;;;;5.77;3.20;;;;;;;;;;5105686;27;20522;-60
2021/04/22 13:24:42;;;;;;;9.00;3.60;;;;;;;;;;5103886;27;20226;-60
2021/04/22 13:27:15;;;;;;;6.07;2.83;;;;;;;;;;5107792;27;20219;-59
2021/04/22 13:29:50;;;;;;;8.13;3.57;;;;;;;;;;5111134;27;20545;-61
2021/04/22 13:32:19;;;;;;;6.17;1.90;;;;;;;;;;5110928;27;20569;-59
2021/04/22 13:34:47;;;;;;;4.80;2.33;;;;;;;;;;5102357;28;20441;-60
2021/04/22 13:37:13;;;;;;;6.63;2.63;;;;;;;;;;5104569;27;20468;-59
2021/04/22 13:39:41;;;;;;;10.70;3.00;;;;;;;;;;5110232;27;20473;-60
2021/04/22 13:42:07;;;;;;;7.17;2.70;;;;;;;;;;5110467;27;20461;-60
2021/04/22 13:44:34;;;;;;;7.43;3.83;;;;;;;;;;5117372;27;20597;-60
2021/04/22 13:47:05;;;;;;;9.80;2.70;;;;;;;;;;5104178;28;20239;-60
2021/04/22 13:49:32;;;;;;;6.37;2.37;;;;;;;;;;5117427;27;20499;-59
2021/04/22 13:52:17;;;;;;;7.57;3.30;;;;;;;;;;5117785;27;20468;-59
2021/04/22 13:54:47;;;;;;;6.90;2.57;;;;;;;;;;5116847;27;20445;-61
2021/04/22 13:57:15;;;;;;;7.93;3.07;;;;;;;;;;5104088;28;20462;-60
2021/04/22 13:59:42;;;;;;;8.43;2.80;;;;;;;;;;5104694;27;20531;-60
2021/04/22 14:02:08;;;;;;;9.07;3.60;;;;;;;;;;5111625;27;20491;-59
2021/04/22 14:04:33;;;;;;;14.80;4.10;;;;;;;;;;5110200;27;20965;-60
2021/04/22 14:06:59;;;;;;;7.73;3.10;;;;;;;;;;5104026;27;20773;-60
2021/04/22 14:09:27;;;;;;;11.40;3.27;;;;;;;;;;5104936;27;20565;-59
2021/04/22 14:11:53;;;;;;;10.07;3.37;;;;;;;;;;5111178;27;20231;-59
2021/04/22 14:14:22;;;;;;;10.47;2.97;;;;;;;;;;5110018;27;20485;-60
2021/04/22 14:16:47;;;;;;;9.03;3.13;;;;;;;;;;5102507;28;20548;-59
2021/04/22 14:19:13;;;;;;;8.97;3.67;;;;;;;;;;5104655;27;20457;-61
2021/04/22 14:21:39;;;;;;;6.77;3.13;;;;;;;;;;5110337;27;20227;-59
2021/04/22 14:24:05;;;;;;;4.47;2.67;;;;;;;;;;5109946;27;20517;-59
2021/04/22 14:26:32;;;;;;;6.27;3.27;;;;;;;;;;5102348;27;20460;-60
2021/04/22 14:28:58;;;;;;;4.57;3.10;;;;;;;;;;5104247;27;20543;-59
2021/04/22 14:31:24;;;;;;;7.77;3.33;;;;;;;;;;5110040;27;20860;-59
2021/04/22 14:33:50;;;;;;;8.20;3.10;;;;;;;;;;5109173;27;20455;-60
2021/04/22 14:36:15;;;;;;;7.80;3.10;;;;;;;;;;5102902;28;20219;-59